createdAt,value
2023-02-04T00:00:37.638Z,101452.47
2023-02-04T00:03:05.766Z,101451.59
2023-02-04T00:05:33.545Z,101462.13
2023-02-04T00:08:01.241Z,101476.88
2023-02-04T00:10:29.716Z,101482.94
2023-02-04T00:12:57.630Z,101494.22
2023-02-04T00:15:25.608Z,101495.97
2023-02-04T00:17:53.313Z,101507.25
2023-02-04T00:20:21.041Z,101515.91
2023-02-04T00:22:48.764Z,101515.91
2023-02-04T00:25:17.197Z,101529.84
2023-02-04T00:27:47.021Z,101527.19
2023-02-04T00:30:14.806Z,101535.81
2023-02-04T00:32:42.280Z,101553.13
2023-02-04T00:35:10.021Z,101551.59
2023-02-04T00:37:37.735Z,101569.00
2023-02-04T00:40:08.454Z,101586.22
2023-02-04T00:42:36.210Z,101586.41
2023-02-04T00:45:03.898Z,101595.09
2023-02-04T00:47:31.490Z,101611.53
2023-02-04T00:49:59.120Z,101638.47
2023-02-04T00:52:26.700Z,101642.84
2023-02-04T00:54:54.195Z,101646.25
2023-02-04T00:57:21.658Z,101662.91
2023-02-04T00:59:49.254Z,101677.75
2023-02-04T01:02:18.374Z,101690.75
2023-02-04T01:04:46.398Z,101705.53
2023-02-04T01:07:14.035Z,101709.88
2023-02-04T01:09:41.713Z,101711.56
2023-02-04T01:12:09.314Z,101725.47
2023-02-04T01:14:37.274Z,101719.41
2023-02-04T01:17:04.876Z,101735.91
2023-02-04T01:19:32.498Z,101742.88
2023-02-04T01:22:00.213Z,101739.47
2023-02-04T01:24:27.805Z,101743.75
2023-02-04T01:26:55.290Z,101764.50
2023-02-04T01:29:23.126Z,101770.53
2023-02-04T01:31:50.811Z,101780.97
2023-02-04T01:34:18.577Z,101788.75
2023-02-04T01:36:46.191Z,101796.50
2023-02-04T01:39:14.261Z,101806.00
2023-02-04T01:41:41.852Z,101808.66
2023-02-04T01:44:09.693Z,101811.28
2023-02-04T01:46:37.787Z,101818.22
2023-02-04T01:49:06.945Z,101824.28
2023-02-04T01:51:35.984Z,101821.78
2023-02-04T01:54:03.822Z,101840.81
2023-02-04T01:56:31.435Z,101841.66
2023-02-04T01:58:59.633Z,101857.31
2023-02-04T02:01:36.106Z,101866.81
2023-02-04T02:04:04.921Z,101873.81
2023-02-04T02:06:32.631Z,101881.59
2023-02-04T02:09:00.369Z,101891.09
2023-02-04T02:11:28.200Z,101904.09
2023-02-04T02:13:55.686Z,101922.25
2023-02-04T02:16:23.322Z,101913.59
2023-02-04T02:18:53.657Z,101923.94
2023-02-04T02:21:50.640Z,101934.34
2023-02-04T02:24:29.519Z,101947.34
2023-02-04T02:26:58.459Z,101944.72
2023-02-04T02:29:26.895Z,101945.59
2023-02-04T02:31:57.591Z,101968.13
2023-02-04T02:34:26.289Z,101975.03
2023-02-04T02:36:53.889Z,101973.28
2023-02-04T02:39:22.101Z,101989.75
2023-02-04T02:41:49.813Z,101988.91
2023-02-04T02:44:17.770Z,101985.47
2023-02-04T02:46:45.557Z,101996.75
2023-02-04T02:49:16.107Z,102004.53
2023-02-04T02:51:44.304Z,102004.53
2023-02-04T02:54:20.657Z,102010.59
2023-02-04T02:56:48.975Z,102021.84
2023-02-04T02:59:17.789Z,102020.13
2023-02-04T03:01:48.281Z,102027.06
2023-02-04T03:08:37.263Z,102051.28
2023-02-04T03:11:05.068Z,102048.69
2023-02-04T03:13:34.101Z,102056.50
2023-02-04T03:16:02.258Z,102059.97
2023-02-04T03:18:31.406Z,102065.16
2023-02-04T03:20:59.192Z,102076.41
2023-02-04T03:23:27.518Z,102072.09
2023-02-04T03:25:55.248Z,102082.47
2023-02-04T03:28:22.850Z,102091.97
2023-02-04T03:30:56.572Z,102097.19
2023-02-04T03:33:26.832Z,102113.63
2023-02-04T03:35:54.526Z,102112.75
2023-02-04T03:38:22.007Z,102121.41
2023-02-04T03:40:49.620Z,102125.72
2023-02-04T03:43:17.112Z,102136.09
2023-02-04T03:45:45.926Z,102149.09
2023-02-04T03:48:13.754Z,102152.56
2023-02-04T03:50:41.461Z,102165.53
2023-02-04T03:53:09.304Z,102179.38
2023-02-04T03:55:37.032Z,102187.19
2023-02-04T03:58:05.462Z,102194.09
2023-02-04T04:00:33.341Z,102197.53
2023-02-04T04:03:01.092Z,102209.66
2023-02-04T04:05:28.849Z,102220.91
2023-02-04T04:07:56.468Z,102219.16
2023-02-04T04:10:24.190Z,102226.09
2023-02-04T04:12:51.695Z,102230.44
2023-02-04T04:15:19.281Z,102235.59
2023-02-04T04:17:47.119Z,102243.38
2023-02-04T04:20:14.606Z,102246.81
2023-02-04T04:22:42.212Z,102246.81
2023-02-04T04:25:09.944Z,102259.81
2023-02-04T04:27:37.653Z,102260.72
2023-02-04T04:30:05.533Z,102266.78
2023-02-04T04:32:33.106Z,102270.22
2023-02-04T04:35:00.819Z,102276.22
2023-02-04T04:37:28.528Z,102283.19
2023-02-04T04:39:56.490Z,102286.66
2023-02-04T04:42:23.964Z,102296.13
2023-02-04T04:44:53.244Z,102308.28
2023-02-04T04:47:20.871Z,102315.22
2023-02-04T04:49:48.477Z,102316.06
2023-02-04T04:52:16.663Z,102321.25
2023-02-04T04:54:44.387Z,102334.22
2023-02-04T04:57:11.989Z,102344.63
2023-02-04T04:59:39.823Z,102348.06
2023-02-04T05:02:12.102Z,102354.94
2023-02-04T05:04:39.744Z,102355.75
2023-02-04T05:07:07.434Z,102358.31
2023-02-04T05:09:35.147Z,102375.63
2023-02-04T05:12:03.110Z,102370.34
2023-02-04T05:14:30.719Z,102376.38
2023-02-04T05:16:58.331Z,102376.38
2023-02-04T05:19:26.043Z,102388.44
2023-02-04T05:21:53.647Z,102387.63
2023-02-04T05:24:21.157Z,102392.84
2023-02-04T05:26:48.972Z,102409.25
2023-02-04T05:29:19.231Z,102408.38
2023-02-04T05:31:46.830Z,102415.34
2023-02-04T05:34:14.436Z,102421.34
2023-02-04T05:36:42.288Z,102430.00
2023-02-04T05:39:10.099Z,102435.19
2023-02-04T05:41:37.699Z,102435.16
2023-02-04T05:44:06.019Z,102452.44
2023-02-04T05:46:33.742Z,102458.50
2023-02-04T05:49:01.476Z,102462.81
2023-02-04T05:51:29.093Z,102470.63
2023-02-04T05:53:56.790Z,102466.28
2023-02-04T05:56:25.488Z,102485.31
2023-02-04T05:58:53.201Z,102481.75
2023-02-04T06:01:20.847Z,102482.63
2023-02-04T06:03:48.391Z,102493.84
2023-02-04T06:06:16.001Z,102490.34
2023-02-04T06:08:43.706Z,102500.78
2023-02-04T06:11:11.428Z,102512.88
2023-02-04T06:13:39.159Z,102515.44
2023-02-04T06:16:07.352Z,102524.13
2023-02-04T06:18:34.972Z,102523.19
2023-02-04T06:21:04.740Z,102530.91
2023-02-04T06:23:34.403Z,102529.97
2023-02-04T06:26:03.046Z,102529.06
2023-02-04T06:28:30.756Z,102535.00
2023-02-04T06:30:58.506Z,102535.00
2023-02-04T06:33:26.091Z,102540.19
2023-02-04T06:35:53.821Z,102542.84
2023-02-04T06:38:22.531Z,102555.00
2023-02-04T06:40:53.774Z,102554.94
2023-02-04T06:43:22.608Z,102555.75
2023-02-04T06:45:51.476Z,102560.94
2023-02-04T06:48:19.023Z,102558.31
2023-02-04T06:50:46.735Z,102564.38
2023-02-04T06:53:14.384Z,102562.66
2023-02-04T06:55:42.557Z,102562.66
2023-02-04T06:58:10.503Z,102570.47
2023-02-04T07:00:41.120Z,102571.28
2023-02-04T07:03:08.740Z,102566.09
2023-02-04T07:05:38.245Z,102571.25
2023-02-04T07:08:06.568Z,102568.69
2023-02-04T07:10:34.723Z,102567.84
2023-02-04T07:13:02.242Z,102571.22
2023-02-04T07:15:31.815Z,102571.25
2023-02-04T07:18:00.323Z,102573.00
2023-02-04T07:20:27.948Z,102571.28
2023-02-04T07:22:57.731Z,102585.06
2023-02-04T07:25:25.671Z,102592.91
2023-02-04T07:27:53.565Z,102604.13
2023-02-04T07:30:21.409Z,102610.19
2023-02-04T07:32:52.181Z,102611.09
2023-02-04T07:35:19.764Z,102623.22
2023-02-04T07:37:54.989Z,102621.53
2023-02-04T07:40:22.835Z,102625.91
2023-02-04T07:42:50.483Z,102629.38
2023-02-04T07:45:18.084Z,102630.19
2023-02-04T07:47:45.690Z,102636.13
2023-02-04T07:50:13.537Z,102646.56
2023-02-04T07:52:41.273Z,102655.22
2023-02-04T07:55:09.220Z,102661.25
2023-02-04T07:57:37.182Z,102663.88
2023-02-04T08:00:06.819Z,102666.47
2023-02-04T08:02:34.467Z,102669.94
2023-02-04T08:05:02.140Z,102673.50
2023-02-04T08:07:29.641Z,102684.78
2023-02-04T08:09:57.215Z,102678.75
2023-02-04T08:12:24.946Z,102688.34
2023-02-04T08:14:53.532Z,102684.94
2023-02-04T08:17:21.815Z,102697.09
2023-02-04T08:19:49.301Z,102697.09
2023-02-04T08:22:17.395Z,102697.97
2023-02-04T08:24:45.225Z,102697.16
2023-02-04T08:27:12.847Z,102709.31
2023-02-04T08:29:40.542Z,102712.78
2023-02-04T08:32:10.321Z,102711.06
2023-02-04T08:34:37.903Z,102721.50
2023-02-04T08:37:05.560Z,102722.41
2023-02-04T08:39:33.111Z,102723.28
2023-02-04T08:42:00.708Z,102732.91
2023-02-04T08:44:28.339Z,102734.75
2023-02-04T08:46:56.154Z,102727.00
2023-02-04T08:49:23.910Z,102725.31
2023-02-04T08:51:55.454Z,102723.69
2023-02-04T08:54:22.983Z,102725.44
2023-02-04T08:56:50.554Z,102734.16
2023-02-04T08:59:18.148Z,102730.75
2023-02-04T09:01:51.059Z,102739.44
2023-02-04T09:04:19.721Z,102749.06
2023-02-04T09:06:47.798Z,102744.75
2023-02-04T09:09:15.877Z,102751.72
2023-02-04T09:11:45.763Z,102751.75
2023-02-04T09:14:13.484Z,102755.28
2023-02-04T09:16:41.138Z,102763.16
2023-02-04T09:19:11.086Z,102772.75
2023-02-04T09:21:43.751Z,102766.72
2023-02-04T09:24:11.224Z,102768.47
2023-02-04T09:26:38.876Z,102771.97
2023-02-04T09:29:06.427Z,102773.72
2023-02-04T09:31:34.244Z,102785.91
2023-02-04T09:34:01.990Z,102796.44
2023-02-04T09:36:30.702Z,102801.69
2023-02-04T09:38:58.266Z,102804.31
2023-02-04T09:41:26.002Z,102804.44
2023-02-04T09:43:56.687Z,102808.81
2023-02-04T09:46:28.686Z,102812.41
2023-02-04T09:48:57.933Z,102814.19
2023-02-04T09:51:30.090Z,102813.38
2023-02-04T09:54:09.949Z,102812.56
2023-02-04T09:56:37.675Z,102816.06
2023-02-04T09:59:14.479Z,102821.34
2023-02-04T10:01:42.306Z,102817.06
2023-02-04T10:04:12.943Z,102823.16
2023-02-04T10:06:41.598Z,102824.88
2023-02-04T10:09:12.911Z,102832.78
2023-02-04T10:11:43.747Z,102829.34
2023-02-04T10:14:15.806Z,102829.34
2023-02-04T10:16:46.548Z,102820.66
2023-02-04T10:19:16.062Z,102824.97
2023-02-04T10:21:48.192Z,102829.31
2023-02-04T10:24:19.426Z,102832.81
2023-02-04T10:26:47.002Z,102833.81
2023-02-04T10:29:20.243Z,102828.59
2023-02-04T10:31:50.214Z,102834.69
2023-02-04T10:34:22.076Z,102833.81
2023-02-04T10:36:54.564Z,102838.16
2023-02-04T10:39:24.455Z,102832.06
2023-02-04T10:42:00.492Z,102831.22
2023-02-04T10:44:34.057Z,102843.41
2023-02-04T10:47:07.431Z,102840.81
2023-02-04T10:49:35.137Z,102846.94
2023-02-04T10:52:03.475Z,102845.22
2023-02-04T10:54:38.029Z,102850.47
2023-02-04T10:57:17.624Z,102844.38
2023-02-04T10:59:46.906Z,102843.50
2023-02-04T11:02:43.305Z,102848.63
2023-02-04T11:09:14.072Z,102846.09
2023-02-04T11:11:49.679Z,102843.47
2023-02-04T11:14:29.275Z,102853.03
2023-02-04T11:17:01.065Z,102853.06
2023-02-04T11:19:38.566Z,102852.28
2023-02-04T11:22:08.887Z,102853.16
2023-02-04T11:24:36.483Z,102855.75
2023-02-04T11:27:25.327Z,102860.13
2023-02-04T11:29:53.288Z,102860.13
2023-02-04T11:32:35.436Z,102867.94
2023-02-04T11:35:25.121Z,102871.44
2023-02-04T11:37:53.723Z,102871.44
2023-02-04T11:40:35.535Z,102879.25
2023-02-04T11:43:15.615Z,102886.25
2023-02-04T11:45:43.697Z,102887.09
2023-02-04T11:48:17.671Z,102893.16
2023-02-04T11:50:59.082Z,102895.75
2023-02-04T11:53:33.852Z,102890.53
2023-02-04T11:56:04.462Z,102894.94
2023-02-04T11:58:32.423Z,102891.44
2023-02-04T12:01:00.148Z,102890.44
2023-02-04T12:03:34.493Z,102893.81
2023-02-04T12:06:05.054Z,102884.91
2023-02-04T12:08:34.963Z,102885.97
2023-02-04T12:11:11.351Z,102890.50
2023-02-04T12:13:50.573Z,102883.56
2023-02-04T12:16:18.363Z,102881.81
2023-02-04T12:18:45.998Z,102887.91
2023-02-04T12:21:14.567Z,102888.81
2023-02-04T12:23:42.777Z,102897.56
2023-02-04T12:26:10.965Z,102895.81
2023-02-04T12:28:38.693Z,102904.50
2023-02-04T12:31:06.392Z,102914.94
2023-02-04T12:33:34.014Z,102913.22
2023-02-04T12:36:01.738Z,102918.44
2023-02-04T12:38:29.452Z,102918.44
2023-02-04T12:40:57.072Z,102918.44
2023-02-04T12:43:28.294Z,102920.19
2023-02-04T12:45:56.092Z,102918.41
2023-02-04T12:48:23.662Z,102913.19
2023-02-04T12:50:51.433Z,102908.81
2023-02-04T12:53:18.923Z,102901.84
2023-02-04T12:55:46.622Z,102908.81
2023-02-04T12:58:14.463Z,102904.47
2023-02-04T13:00:42.833Z,102918.41
2023-02-04T13:03:10.514Z,102916.66
2023-02-04T13:05:38.462Z,102917.53
2023-02-04T13:08:06.087Z,102912.34
2023-02-04T13:10:33.671Z,102917.53
2023-02-04T13:13:04.035Z,102928.84
2023-02-04T13:15:32.227Z,102923.66
2023-02-04T13:18:00.203Z,102923.66
2023-02-04T13:20:27.803Z,102927.13
2023-02-04T13:22:55.524Z,102928.84
2023-02-04T13:25:23.370Z,102934.09
2023-02-04T13:27:51.138Z,102933.19
2023-02-04T13:30:18.863Z,102927.97
2023-02-04T13:32:46.659Z,102938.41
2023-02-04T13:35:14.501Z,102934.91
2023-02-04T13:37:42.091Z,102941.78
2023-02-04T13:40:12.342Z,102939.22
2023-02-04T13:42:39.940Z,102946.16
2023-02-04T13:45:12.363Z,102944.41
2023-02-04T13:47:40.098Z,102944.50
2023-02-04T13:50:08.138Z,102937.59
2023-02-04T13:52:35.864Z,102943.53
2023-02-04T13:55:03.599Z,102941.41
2023-02-04T13:57:33.004Z,102953.53
2023-02-04T14:00:00.881Z,102941.44
2023-02-04T14:02:28.504Z,102944.22
2023-02-04T14:04:57.853Z,102946.88
2023-02-04T14:07:25.911Z,102944.28
2023-02-04T14:09:53.512Z,102944.34
2023-02-04T14:12:20.989Z,102946.19
2023-02-04T14:14:48.600Z,102947.09
2023-02-04T14:17:16.332Z,102955.84
2023-02-04T14:19:44.044Z,102965.44
2023-02-04T14:22:13.362Z,102961.97
2023-02-04T14:24:42.764Z,102967.19
2023-02-04T14:27:10.958Z,102968.94
2023-02-04T14:29:38.536Z,102968.88
2023-02-04T14:32:06.123Z,102974.06
2023-02-04T14:34:33.862Z,102977.47
2023-02-04T14:37:01.550Z,102972.25
2023-02-04T14:39:29.287Z,102973.13
2023-02-04T14:41:56.892Z,102979.22
2023-02-04T14:44:24.403Z,102982.69
2023-02-04T14:46:51.983Z,102989.59
2023-02-04T14:49:19.938Z,102986.88
2023-02-04T14:51:48.037Z,102987.81
2023-02-04T14:54:16.586Z,102984.28
2023-02-04T14:56:46.582Z,102983.31
2023-02-04T14:59:13.983Z,102986.81
2023-02-04T15:01:42.523Z,102994.56
2023-02-04T15:04:13.751Z,102991.88
2023-02-04T15:06:41.552Z,103003.16
2023-02-04T15:09:09.048Z,103005.75
2023-02-04T15:11:36.653Z,103006.69
2023-02-04T15:14:04.367Z,103016.19
2023-02-04T15:16:32.127Z,103016.16
2023-02-04T15:18:59.920Z,103017.84
2023-02-04T15:21:27.650Z,103017.75
2023-02-04T15:23:55.597Z,103017.66
2023-02-04T15:26:25.138Z,103021.13
2023-02-04T15:28:52.730Z,103022.91
2023-02-04T15:31:20.649Z,103023.88
2023-02-04T15:33:48.171Z,103020.41
2023-02-04T15:36:17.708Z,103018.63
2023-02-04T15:38:46.386Z,103018.53
2023-02-04T15:41:14.004Z,103015.91
2023-02-04T15:43:41.691Z,103025.41
2023-02-04T15:46:09.343Z,103024.47
2023-02-04T15:48:36.890Z,103018.31
2023-02-04T15:51:04.620Z,103022.56
2023-02-04T15:53:32.101Z,103029.50
2023-02-04T15:55:59.834Z,103026.03
2023-02-04T15:58:27.428Z,103033.88
2023-02-04T16:00:54.913Z,103026.94
2023-02-04T16:03:22.520Z,103026.81
2023-02-04T16:05:50.136Z,103037.88
2023-02-04T16:08:18.077Z,103034.19
2023-02-04T16:10:45.915Z,103036.84
2023-02-04T16:13:13.544Z,103041.06
2023-02-04T16:15:41.396Z,103044.38
2023-02-04T16:18:08.844Z,103047.75
2023-02-04T16:20:36.455Z,103045.13
2023-02-04T16:23:04.536Z,103046.91
2023-02-04T16:25:32.473Z,103051.34
2023-02-04T16:28:00.493Z,103055.75
2023-02-04T16:30:30.885Z,103054.88
2023-02-04T16:32:58.285Z,103055.63
2023-02-04T16:35:27.257Z,103061.69
2023-02-04T16:37:54.809Z,103053.03
2023-02-04T16:40:22.291Z,103053.72
2023-02-04T16:42:49.911Z,103062.28
2023-02-04T16:45:17.626Z,103062.31
2023-02-04T16:47:45.096Z,103057.78
2023-02-04T16:50:12.817Z,103061.97
2023-02-04T16:52:40.419Z,103057.66
2023-02-04T16:55:09.350Z,103068.00
2023-02-04T16:57:37.063Z,103067.00
2023-02-04T17:00:07.056Z,103062.59
2023-02-04T17:02:37.300Z,103074.78
2023-02-04T17:05:05.878Z,103069.34
2023-02-04T17:07:35.507Z,103075.38
2023-02-04T17:10:03.469Z,103071.91
2023-02-04T17:12:31.104Z,103080.56
2023-02-04T17:14:58.669Z,103075.94
2023-02-04T17:17:26.154Z,103081.03
2023-02-04T17:24:13.008Z,103091.06
2023-02-04T17:26:40.978Z,103095.38
2023-02-04T17:29:15.625Z,103095.38
2023-02-04T17:31:43.842Z,103098.06
2023-02-04T17:34:11.772Z,103100.59
2023-02-04T17:36:39.378Z,103104.94
2023-02-04T17:39:07.738Z,103105.81
2023-02-04T17:41:38.077Z,103110.97
2023-02-04T17:44:05.912Z,103113.56
2023-02-04T17:46:38.477Z,103128.19
2023-02-04T17:49:06.151Z,103126.34
2023-02-04T17:51:34.095Z,103126.34
2023-02-04T17:54:01.753Z,103127.25
2023-02-04T17:56:29.551Z,103128.19
2023-02-04T17:58:57.992Z,103125.63
2023-02-04T18:01:26.065Z,103112.63
2023-02-04T18:03:53.914Z,103111.81
2023-02-04T18:06:27.231Z,103115.31
2023-02-04T18:09:02.131Z,103119.63
2023-02-04T18:11:33.160Z,103114.19
2023-02-04T18:14:18.078Z,103122.53
2023-02-04T18:16:46.143Z,103121.59
2023-02-04T18:19:20.011Z,103124.75
2023-02-04T18:21:55.416Z,103122.00
2023-02-04T18:24:36.470Z,103119.38
2023-02-04T18:27:15.530Z,103126.34
2023-02-04T18:29:44.728Z,103118.44
2023-02-04T18:32:22.123Z,103127.00
2023-02-04T18:34:52.014Z,103126.72
2023-02-04T18:37:46.278Z,103129.28
2023-02-04T18:40:20.351Z,103140.59
2023-02-04T18:42:48.433Z,103139.66
2023-02-04T18:45:27.583Z,103138.72
2023-02-04T18:48:01.132Z,103137.16
2023-02-04T18:50:32.772Z,103151.88
2023-02-04T18:53:20.095Z,103152.75
2023-02-04T18:55:58.651Z,103151.00
2023-02-04T18:58:34.519Z,103158.78
2023-02-04T19:01:32.265Z,103150.78
2023-02-04T19:04:23.234Z,103156.28
2023-02-04T19:06:52.384Z,103150.69
2023-02-04T19:09:28.066Z,103157.38
2023-02-04T19:11:58.026Z,103156.50
2023-02-04T19:14:40.048Z,103150.41
2023-02-04T19:17:08.471Z,103149.72
2023-02-04T19:19:40.914Z,103159.88
2023-02-04T19:22:20.838Z,103165.91
2023-02-04T19:24:58.640Z,103161.25
2023-02-04T19:27:34.313Z,103169.16
2023-02-04T19:30:18.824Z,103168.25
2023-02-04T19:32:46.639Z,103163.97
2023-02-04T19:35:23.356Z,103174.19
2023-02-04T19:38:06.154Z,103171.59
2023-02-04T19:40:43.292Z,103182.78
2023-02-04T19:43:53.683Z,103182.78
2023-02-04T19:46:33.513Z,103179.19
2023-02-04T19:49:24.037Z,103177.41
2023-02-04T19:52:02.148Z,103188.59
2023-02-04T19:54:38.681Z,103190.25
2023-02-04T19:57:21.465Z,103192.63
2023-02-04T19:59:49.098Z,103184.59
2023-02-04T20:02:33.621Z,103196.38
2023-02-04T20:05:02.064Z,103188.38
2023-02-04T20:07:30.236Z,103197.75
2023-02-04T20:10:02.801Z,103196.13
2023-02-04T20:12:33.165Z,103188.28
2023-02-04T20:15:04.078Z,103194.31
2023-02-04T20:17:46.097Z,103185.28
2023-02-04T20:20:18.370Z,103197.34
2023-02-04T20:22:58.099Z,103196.47
2023-02-04T20:25:39.083Z,103198.31
2023-02-04T20:28:43.008Z,103202.53
2023-02-04T20:31:23.502Z,103204.25
2023-02-04T20:33:56.679Z,103209.47
2023-02-04T20:36:41.208Z,103208.69
2023-02-04T20:39:36.037Z,103211.38
2023-02-04T20:42:22.952Z,103212.06
2023-02-04T20:44:52.218Z,103214.59
2023-02-04T20:47:23.657Z,103222.41
2023-02-04T20:49:56.698Z,103210.19
2023-02-04T20:53:06.393Z,103218.16
2023-02-04T20:55:35.224Z,103220.78
2023-02-04T20:58:19.483Z,103219.00
2023-02-04T21:00:52.338Z,103220.53
2023-02-04T21:03:37.367Z,103207.56
2023-02-04T21:06:27.881Z,103211.84
2023-02-04T21:08:59.696Z,103204.00
2023-02-04T21:11:27.273Z,103209.06
2023-02-04T21:13:56.077Z,103214.22
2023-02-04T21:16:23.555Z,103220.28
2023-02-04T21:18:51.282Z,103211.59
2023-02-04T21:21:20.461Z,103220.94
2023-02-04T21:23:48.302Z,103224.16
2023-02-04T21:26:16.122Z,103220.69
2023-02-04T21:28:43.867Z,103224.00
2023-02-04T21:31:12.059Z,103215.53
2023-02-04T21:33:40.007Z,103226.69
2023-02-04T21:36:08.215Z,103222.31
2023-02-04T21:38:35.925Z,103235.22
2023-02-04T21:45:01.395Z,103242.84
2023-02-04T21:47:29.222Z,103240.34
2023-02-04T21:49:57.061Z,103238.75
2023-02-04T21:52:24.676Z,103245.72
2023-02-04T21:54:52.279Z,103248.28
2023-02-04T21:57:19.866Z,103247.44
2023-02-04T21:59:49.229Z,103246.44
2023-02-04T22:02:17.232Z,103249.09
2023-02-04T22:04:44.833Z,103247.41
2023-02-04T22:07:12.696Z,103242.91
2023-02-04T22:09:40.535Z,103251.47
2023-02-04T22:12:08.354Z,103246.25
2023-02-04T22:14:36.136Z,103246.28
2023-02-04T22:17:04.025Z,103246.31
2023-02-04T22:19:31.786Z,103250.59
2023-02-04T22:21:59.604Z,103248.91
2023-02-04T22:24:27.349Z,103241.97
2023-02-04T22:26:55.052Z,103233.31
2023-02-04T22:33:35.731Z,103235.97
2023-02-04T22:36:03.604Z,103233.44
2023-02-04T22:38:31.179Z,103231.75
2023-02-04T22:40:58.670Z,103241.28
2023-02-04T22:43:26.410Z,103236.91
2023-02-04T22:45:55.423Z,103227.28
2023-02-04T22:48:23.141Z,103222.97
2023-02-04T22:50:51.113Z,103229.94
2023-02-04T22:53:18.834Z,103228.06
2023-02-04T22:55:46.668Z,103227.78
2023-02-04T22:58:14.167Z,103228.50
2023-02-04T23:00:46.110Z,103231.31
2023-02-04T23:03:13.818Z,103225.34
2023-02-04T23:05:41.569Z,103235.81
2023-02-04T23:08:09.255Z,103237.59
2023-02-04T23:10:38.804Z,103231.63
2023-02-04T23:13:06.768Z,103231.75
2023-02-04T23:15:34.971Z,103235.22
2023-02-04T23:18:02.780Z,103231.00
2023-02-04T23:20:30.495Z,103231.03
2023-02-04T23:22:58.200Z,103229.28
2023-02-04T23:25:25.676Z,103232.75
2023-02-04T23:27:53.460Z,103227.63
2023-02-04T23:30:22.561Z,103227.69
2023-02-04T23:32:51.129Z,103227.72
2023-02-04T23:35:18.642Z,103221.66
2023-02-04T23:37:46.232Z,103224.22
2023-02-04T23:40:13.942Z,103221.69
2023-02-04T23:42:41.552Z,103219.00
2023-02-04T23:45:09.885Z,103221.50
2023-02-04T23:47:37.490Z,103224.97
2023-02-04T23:50:05.548Z,103217.28
2023-02-04T23:52:33.307Z,103211.19
2023-02-04T23:55:01.107Z,103210.31
2023-02-04T23:57:28.821Z,103206.94
2023-02-04T23:59:56.309Z,103213.88
